sensor_id;sensor_type;location;lat;lon;timestamp;pressure;altitude;pressure_sealevel;temperature;humidity
28354;BME280;15603;50.878;8.036;2022-08-21T00:00:50;146897.28;;;15.35;96.64
28354;BME280;15603;50.878;8.036;2022-08-21T00:03:17;146860.72;;;15.20;97.41
28354;BME280;15603;50.878;8.036;2022-08-21T00:05:48;146861.91;;;15.20;98.04
28354;BME280;15603;50.878;8.036;2022-08-21T00:08:18;146858.31;;;15.19;97.61
28354;BME280;15603;50.878;8.036;2022-08-21T00:10:46;146811.97;;;14.99;97.39
28354;BME280;15603;50.878;8.036;2022-08-21T00:13:14;146827.81;;;15.06;97.90
28354;BME280;15603;50.878;8.036;2022-08-21T00:15:45;146799.78;;;14.94;98.32
28354;BME280;15603;50.878;8.036;2022-08-21T00:18:13;146796.09;;;14.92;99.69
28354;BME280;15603;50.878;8.036;2022-08-21T00:20:41;146811.97;;;14.99;98.84
28354;BME280;15603;50.878;8.036;2022-08-21T00:23:09;146816.84;;;15.01;98.70
28354;BME280;15603;50.878;8.036;2022-08-21T00:25:36;146758.34;;;14.77;98.34
28354;BME280;15603;50.878;8.036;2022-08-21T00:28:04;146820.47;;;15.03;97.81
28354;BME280;15603;50.878;8.036;2022-08-21T00:30:31;146787.56;;;14.89;98.51
28354;BME280;15603;50.878;8.036;2022-08-21T00:32:59;146753.47;;;14.75;98.84
28354;BME280;15603;50.878;8.036;2022-08-21T00:35:29;146763.19;;;14.79;99.56
28354;BME280;15603;50.878;8.036;2022-08-21T00:37:57;146747.34;;;14.72;99.74
28354;BME280;15603;50.878;8.036;2022-08-21T00:40:29;146751.00;;;14.73;99.78
28354;BME280;15603;50.878;8.036;2022-08-21T00:42:57;146755.88;;;14.76;99.58
28354;BME280;15603;50.878;8.036;2022-08-21T00:45:24;146742.47;;;14.70;99.16
28354;BME280;15603;50.878;8.036;2022-08-21T00:47:52;146665.66;;;14.38;99.77
28354;BME280;15603;50.878;8.036;2022-08-21T00:50:23;146721.75;;;14.61;100.00
28354;BME280;15603;50.878;8.036;2022-08-21T00:52:52;146710.78;;;14.57;99.47
28354;BME280;15603;50.878;8.036;2022-08-21T00:55:20;146738.84;;;14.68;98.92
28354;BME280;15603;50.878;8.036;2022-08-21T00:57:52;146741.25;;;14.69;98.75
28354;BME280;15603;50.878;8.036;2022-08-21T01:00:26;146741.25;;;14.69;98.87
28354;BME280;15603;50.878;8.036;2022-08-21T01:02:57;146660.75;;;14.36;99.01
28354;BME280;15603;50.878;8.036;2022-08-21T01:05:25;146705.84;;;14.54;99.96
28354;BME280;15603;50.878;8.036;2022-08-21T01:07:54;146697.31;;;14.51;99.94
28354;BME280;15603;50.878;8.036;2022-08-21T01:10:30;146681.50;;;14.44;100.00
28354;BME280;15603;50.878;8.036;2022-08-21T01:12:58;146665.66;;;14.38;100.00
28354;BME280;15603;50.878;8.036;2022-08-21T01:15:30;146669.28;;;14.39;100.00
28354;BME280;15603;50.878;8.036;2022-08-21T01:17:59;146671.75;;;14.40;100.00
28354;BME280;15603;50.878;8.036;2022-08-21T01:20:27;146648.59;;;14.30;99.82
28354;BME280;15603;50.878;8.036;2022-08-21T01:23:01;146629.13;;;14.22;100.00
28354;BME280;15603;50.878;8.036;2022-08-21T01:25:28;146570.63;;;13.98;100.00
28354;BME280;15603;50.878;8.036;2022-08-21T01:27:57;146596.19;;;14.08;100.00
28354;BME280;15603;50.878;8.036;2022-08-21T01:30:28;146619.34;;;14.18;100.00
28354;BME280;15603;50.878;8.036;2022-08-21T01:32:55;146614.47;;;14.16;100.00
28354;BME280;15603;50.878;8.036;2022-08-21T01:35:23;146587.66;;;14.05;100.00
28354;BME280;15603;50.878;8.036;2022-08-21T01:37:50;146553.56;;;13.90;99.77
28354;BME280;15603;50.878;8.036;2022-08-21T01:40:17;146619.34;;;14.18;99.39
28354;BME280;15603;50.878;8.036;2022-08-21T01:42:45;146585.22;;;14.04;99.51
28354;BME280;15603;50.878;8.036;2022-08-21T01:45:13;146573.03;;;13.99;100.00
28354;BME280;15603;50.878;8.036;2022-08-21T01:47:41;146551.09;;;13.89;100.00
28354;BME280;15603;50.878;8.036;2022-08-21T01:50:11;146524.34;;;13.78;100.00
28354;BME280;15603;50.878;8.036;2022-08-21T01:52:39;146520.69;;;13.77;100.00
28354;BME280;15603;50.878;8.036;2022-08-21T01:55:07;146543.81;;;13.86;100.00
28354;BME280;15603;50.878;8.036;2022-08-21T01:57:35;146543.81;;;13.86;100.00
28354;BME280;15603;50.878;8.036;2022-08-21T02:00:06;146452.47;;;13.48;100.00
28354;BME280;15603;50.878;8.036;2022-08-21T02:02:38;146493.88;;;13.65;100.00
28354;BME280;15603;50.878;8.036;2022-08-21T02:05:08;146463.41;;;13.52;100.00
28354;BME280;15603;50.878;8.036;2022-08-21T02:07:47;146496.28;;;13.66;100.00
28354;BME280;15603;50.878;8.036;2022-08-21T02:10:21;146521.88;;;13.77;100.00
28354;BME280;15603;50.878;8.036;2022-08-21T02:12:48;146498.75;;;13.67;100.00
28354;BME280;15603;50.878;8.036;2022-08-21T02:15:16;146507.28;;;13.71;100.00
28354;BME280;15603;50.878;8.036;2022-08-21T02:17:51;146473.16;;;13.57;100.00
28354;BME280;15603;50.878;8.036;2022-08-21T02:20:22;146484.13;;;13.61;100.00
28354;BME280;15603;50.878;8.036;2022-08-21T02:22:50;146454.88;;;13.49;100.00
28354;BME280;15603;50.878;8.036;2022-08-21T02:25:19;146461.00;;;13.51;100.00
28354;BME280;15603;50.878;8.036;2022-08-21T02:27:47;146456.13;;;13.49;100.00
28354;BME280;15603;50.878;8.036;2022-08-21T02:30:17;146429.34;;;13.38;100.00
28354;BME280;15603;50.878;8.036;2022-08-21T02:32:45;146431.75;;;13.39;100.00
28354;BME280;15603;50.878;8.036;2022-08-21T02:35:12;146439.06;;;13.42;100.00
28354;BME280;15603;50.878;8.036;2022-08-21T02:37:49;146456.13;;;13.49;100.00
28354;BME280;15603;50.878;8.036;2022-08-21T02:40:19;146431.75;;;13.39;100.00
28354;BME280;15603;50.878;8.036;2022-08-21T02:42:46;146426.88;;;13.37;100.00
28354;BME280;15603;50.878;8.036;2022-08-21T02:45:15;146417.13;;;13.33;100.00
28354;BME280;15603;50.878;8.036;2022-08-21T02:47:56;146422.00;;;13.35;100.00
28354;BME280;15603;50.878;8.036;2022-08-21T02:50:26;146424.47;;;13.36;100.00
28354;BME280;15603;50.878;8.036;2022-08-21T02:52:54;146407.34;;;13.29;100.00
28354;BME280;15603;50.878;8.036;2022-08-21T02:55:23;146411.06;;;13.30;100.00
28354;BME280;15603;50.878;8.036;2022-08-21T02:57:50;146390.31;;;13.22;100.00
28354;BME280;15603;50.878;8.036;2022-08-21T03:00:17;146339.16;;;13.00;100.00
28354;BME280;15603;50.878;8.036;2022-08-21T03:02:45;146393.97;;;13.23;100.00
28354;BME280;15603;50.878;8.036;2022-08-21T03:05:14;146322.13;;;12.93;100.00
28354;BME280;15603;50.878;8.036;2022-08-21T03:07:43;146330.63;;;12.96;100.00
28354;BME280;15603;50.878;8.036;2022-08-21T03:10:11;146356.22;;;13.07;100.00
28354;BME280;15603;50.878;8.036;2022-08-21T03:12:38;146361.09;;;13.09;100.00
28354;BME280;15603;50.878;8.036;2022-08-21T03:15:08;146319.69;;;12.92;100.00
28354;BME280;15603;50.878;8.036;2022-08-21T03:17:36;146307.50;;;12.87;100.00
28354;BME280;15603;50.878;8.036;2022-08-21T03:20:05;146316.03;;;12.90;100.00
28354;BME280;15603;50.878;8.036;2022-08-21T03:22:33;146316.03;;;12.90;100.00
28354;BME280;15603;50.878;8.036;2022-08-21T03:25:00;146246.66;;;12.61;100.00
28354;BME280;15603;50.878;8.036;2022-08-21T03:27:32;146267.34;;;12.70;100.00
28354;BME280;15603;50.878;8.036;2022-08-21T03:30:03;146286.84;;;12.78;100.00
28354;BME280;15603;50.878;8.036;2022-08-21T03:32:31;146295.31;;;12.82;100.00
28354;BME280;15603;50.878;8.036;2022-08-21T03:34:59;146297.78;;;12.83;100.00
28354;BME280;15603;50.878;8.036;2022-08-21T03:37:27;146285.59;;;12.77;100.00
28354;BME280;15603;50.878;8.036;2022-08-21T03:39:54;146307.50;;;12.87;100.00
28354;BME280;15603;50.878;8.036;2022-08-21T03:42:22;146305.09;;;12.86;100.00
28354;BME280;15603;50.878;8.036;2022-08-21T03:44:49;146283.19;;;12.76;100.00
28354;BME280;15603;50.878;8.036;2022-08-21T03:47:17;146307.50;;;12.87;100.00
28354;BME280;15603;50.878;8.036;2022-08-21T03:49:44;146308.72;;;12.87;100.00
28354;BME280;15603;50.878;8.036;2022-08-21T03:52:11;146283.19;;;12.76;100.00
28354;BME280;15603;50.878;8.036;2022-08-21T03:54:38;146295.31;;;12.82;100.00
28354;BME280;15603;50.878;8.036;2022-08-21T03:57:08;146180.91;;;12.33;100.00
28354;BME280;15603;50.878;8.036;2022-08-21T03:59:37;146290.47;;;12.80;100.00
28354;BME280;15603;50.878;8.036;2022-08-21T04:02:05;146149.28;;;12.20;100.00
28354;BME280;15603;50.878;8.036;2022-08-21T04:04:33;146246.66;;;12.61;100.00
28354;BME280;15603;50.878;8.036;2022-08-21T04:07:00;146275.84;;;12.73;100.00
28354;BME280;15603;50.878;8.036;2022-08-21T04:09:28;146256.41;;;12.65;100.00
28354;BME280;15603;50.878;8.036;2022-08-21T04:11:56;146238.16;;;12.57;100.00
28354;BME280;15603;50.878;8.036;2022-08-21T04:14:23;146253.94;;;12.64;100.00
28354;BME280;15603;50.878;8.036;2022-08-21T04:16:50;146236.94;;;12.57;100.00
28354;BME280;15603;50.878;8.036;2022-08-21T04:19:17;146152.94;;;12.22;100.00
28354;BME280;15603;50.878;8.036;2022-08-21T04:21:44;146224.75;;;12.52;100.00
28354;BME280;15603;50.878;8.036;2022-08-21T04:24:12;146204.03;;;12.43;100.00
28354;BME280;15603;50.878;8.036;2022-08-21T04:26:39;146188.25;;;12.36;100.00
28354;BME280;15603;50.878;8.036;2022-08-21T04:29:06;146196.75;;;12.40;100.00
28354;BME280;15603;50.878;8.036;2022-08-21T04:31:36;146200.44;;;12.42;100.00
28354;BME280;15603;50.878;8.036;2022-08-21T04:34:04;146191.91;;;12.38;100.00
28354;BME280;15603;50.878;8.036;2022-08-21T04:36:33;146112.78;;;12.05;100.00
28354;BME280;15603;50.878;8.036;2022-08-21T04:39:00;146216.22;;;12.48;100.00
28354;BME280;15603;50.878;8.036;2022-08-21T04:41:29;146127.41;;;12.11;100.00
28354;BME280;15603;50.878;8.036;2022-08-21T04:43:57;146215.03;;;12.48;100.00
28354;BME280;15603;50.878;8.036;2022-08-21T04:46:24;146239.34;;;12.58;100.00
28354;BME280;15603;50.878;8.036;2022-08-21T04:48:51;146232.06;;;12.55;99.54
28354;BME280;15603;50.878;8.036;2022-08-21T04:51:24;146217.44;;;12.49;99.41
28354;BME280;15603;50.878;8.036;2022-08-21T04:53:59;146230.81;;;12.54;99.58
28354;BME280;15603;50.878;8.036;2022-08-21T04:56:31;146266.13;;;12.69;98.92
28354;BME280;15603;50.878;8.036;2022-08-21T04:59:02;146291.72;;;12.80;98.37
28354;BME280;15603;50.878;8.036;2022-08-21T05:01:34;146279.53;;;12.75;98.43
28354;BME280;15603;50.878;8.036;2022-08-21T05:04:04;146300.25;;;12.84;97.79
28354;BME280;15603;50.878;8.036;2022-08-21T05:06:35;146306.31;;;12.86;98.57
28354;BME280;15603;50.878;8.036;2022-08-21T05:09:04;146302.66;;;12.85;98.06
28354;BME280;15603;50.878;8.036;2022-08-21T05:11:32;146320.91;;;12.92;97.28
28354;BME280;15603;50.878;8.036;2022-08-21T05:13:59;146324.56;;;12.94;97.51
28354;BME280;15603;50.878;8.036;2022-08-21T05:16:26;146346.50;;;13.03;96.08
28354;BME280;15603;50.878;8.036;2022-08-21T05:19:06;146359.88;;;13.09;96.22
28354;BME280;15603;50.878;8.036;2022-08-21T05:21:35;146372.03;;;13.14;96.57
28354;BME280;15603;50.878;8.036;2022-08-21T05:24:04;146373.28;;;13.14;96.64
28354;BME280;15603;50.878;8.036;2022-08-21T05:26:31;146347.69;;;13.04;96.01
28354;BME280;15603;50.878;8.036;2022-08-21T05:28:58;146392.75;;;13.23;96.21
28354;BME280;15603;50.878;8.036;2022-08-21T05:31:25;146390.31;;;13.22;96.41
28354;BME280;15603;50.878;8.036;2022-08-21T05:33:52;146402.50;;;13.27;95.72
28354;BME280;15603;50.878;8.036;2022-08-21T05:36:22;146324.56;;;12.94;95.70
28354;BME280;15603;50.878;8.036;2022-08-21T05:38:49;146412.28;;;13.31;95.56
28354;BME280;15603;50.878;8.036;2022-08-21T05:41:16;146400.03;;;13.26;95.98
28354;BME280;15603;50.878;8.036;2022-08-21T05:43:43;146412.28;;;13.31;96.73
28354;BME280;15603;50.878;8.036;2022-08-21T05:46:10;146415.94;;;13.32;97.05
28354;BME280;15603;50.878;8.036;2022-08-21T05:48:38;146412.28;;;13.31;96.96
28354;BME280;15603;50.878;8.036;2022-08-21T05:51:13;146422.00;;;13.35;97.40
28354;BME280;15603;50.878;8.036;2022-08-21T05:53:41;146422.00;;;13.35;98.85
28354;BME280;15603;50.878;8.036;2022-08-21T05:56:09;146443.94;;;13.44;97.30
28354;BME280;15603;50.878;8.036;2022-08-21T05:58:37;146457.34;;;13.50;96.94
28354;BME280;15603;50.878;8.036;2022-08-21T06:01:05;146436.63;;;13.41;97.73
28354;BME280;15603;50.878;8.036;2022-08-21T06:03:34;146456.13;;;13.49;97.62
28354;BME280;15603;50.878;8.036;2022-08-21T06:06:02;146453.66;;;13.48;97.98
28354;BME280;15603;50.878;8.036;2022-08-21T06:08:29;146468.28;;;13.54;98.06
28354;BME280;15603;50.878;8.036;2022-08-21T06:10:59;146493.88;;;13.65;96.98
28354;BME280;15603;50.878;8.036;2022-08-21T06:13:28;146517.00;;;13.75;97.43
28354;BME280;15603;50.878;8.036;2022-08-21T06:16:13;146545.03;;;13.87;96.44
28354;BME280;15603;50.878;8.036;2022-08-21T06:18:43;146591.31;;;14.06;95.98
28354;BME280;15603;50.878;8.036;2022-08-21T06:21:11;146612.03;;;14.15;96.16
28354;BME280;15603;50.878;8.036;2022-08-21T06:23:40;146643.72;;;14.28;95.19
28354;BME280;15603;50.878;8.036;2022-08-21T06:26:09;146664.41;;;14.37;94.87
28354;BME280;15603;50.878;8.036;2022-08-21T06:28:36;146682.69;;;14.45;95.24
28354;BME280;15603;50.878;8.036;2022-08-21T06:31:19;146675.41;;;14.42;95.04
28354;BME280;15603;50.878;8.036;2022-08-21T06:33:47;146731.50;;;14.65;94.97
28354;BME280;15603;50.878;8.036;2022-08-21T06:36:15;146777.81;;;14.85;94.95
28354;BME280;15603;50.878;8.036;2022-08-21T06:38:42;146813.19;;;15.00;93.01
28354;BME280;15603;50.878;8.036;2022-08-21T06:41:17;146831.47;;;15.07;94.13
28354;BME280;15603;50.878;8.036;2022-08-21T06:43:53;146855.84;;;15.18;94.07
28354;BME280;15603;50.878;8.036;2022-08-21T06:46:25;146918.03;;;15.44;93.19
28354;BME280;15603;50.878;8.036;2022-08-21T06:48:53;146942.41;;;15.54;92.25
28354;BME280;15603;50.878;8.036;2022-08-21T06:51:21;146946.09;;;15.56;92.81
28354;BME280;15603;50.878;8.036;2022-08-21T06:53:49;146994.94;;;15.76;91.50
28354;BME280;15603;50.878;8.036;2022-08-21T06:56:16;146992.47;;;15.75;91.82
28354;BME280;15603;50.878;8.036;2022-08-21T06:58:43;147025.41;;;15.89;92.08
28354;BME280;15603;50.878;8.036;2022-08-21T07:01:11;147058.31;;;16.03;90.64
28354;BME280;15603;50.878;8.036;2022-08-21T07:03:41;147077.88;;;16.11;90.13
28354;BME280;15603;50.878;8.036;2022-08-21T07:06:10;147126.66;;;16.32;89.43
28354;BME280;15603;50.878;8.036;2022-08-21T07:08:37;147182.81;;;16.55;88.79
28354;BME280;15603;50.878;8.036;2022-08-21T07:11:17;147174.25;;;16.52;87.52
28354;BME280;15603;50.878;8.036;2022-08-21T07:13:44;147260.97;;;16.88;87.15
28354;BME280;15603;50.878;8.036;2022-08-21T07:16:12;147292.69;;;17.01;87.14
28354;BME280;15603;50.878;8.036;2022-08-21T07:18:39;147309.75;;;17.08;86.23
28354;BME280;15603;50.878;8.036;2022-08-21T07:21:07;147365.94;;;17.32;85.52
28354;BME280;15603;50.878;8.036;2022-08-21T07:23:41;147418.44;;;17.54;85.00
28354;BME280;15603;50.878;8.036;2022-08-21T07:26:10;147488.03;;;17.83;83.52
28354;BME280;15603;50.878;8.036;2022-08-21T07:28:38;147494.22;;;17.86;83.83
28354;BME280;15603;50.878;8.036;2022-08-21T07:31:05;147470.91;;;17.76;82.31
28354;BME280;15603;50.878;8.036;2022-08-21T07:33:33;147593.13;;;18.28;81.24
28354;BME280;15603;50.878;8.036;2022-08-21T07:36:01;147584.56;;;18.24;79.96
28354;BME280;15603;50.878;8.036;2022-08-21T07:38:28;147588.22;;;18.25;78.79
28354;BME280;15603;50.878;8.036;2022-08-21T07:40:56;147610.22;;;18.35;78.90
28354;BME280;15603;50.878;8.036;2022-08-21T07:43:26;147733.69;;;18.87;78.87
28354;BME280;15603;50.878;8.036;2022-08-21T07:45:53;147730.00;;;18.85;78.11
28354;BME280;15603;50.878;8.036;2022-08-21T07:48:21;147769.16;;;19.01;78.39
28354;BME280;15603;50.878;8.036;2022-08-21T07:50:49;147800.88;;;19.15;77.82
28354;BME280;15603;50.878;8.036;2022-08-21T07:53:17;147825.34;;;19.25;77.09
28354;BME280;15603;50.878;8.036;2022-08-21T07:55:45;147862.03;;;19.40;77.21
28354;BME280;15603;50.878;8.036;2022-08-21T07:58:12;147814.31;;;19.20;77.09
28354;BME280;15603;50.878;8.036;2022-08-21T08:00:39;147802.13;;;19.15;77.05
28354;BME280;15603;50.878;8.036;2022-08-21T08:03:07;147852.25;;;19.36;76.80
28354;BME280;15603;50.878;8.036;2022-08-21T08:05:36;147893.81;;;19.54;76.21
28354;BME280;15603;50.878;8.036;2022-08-21T08:08:07;147884.03;;;19.50;75.22
28354;BME280;15603;50.878;8.036;2022-08-21T08:10:37;147864.44;;;19.41;75.30
28354;BME280;15603;50.878;8.036;2022-08-21T08:13:04;147863.25;;;19.41;75.29
28354;BME280;15603;50.878;8.036;2022-08-21T08:15:36;147969.66;;;19.86;73.80
28354;BME280;15603;50.878;8.036;2022-08-21T08:18:04;147964.75;;;19.84;72.94
28354;BME280;15603;50.878;8.036;2022-08-21T08:20:31;147986.78;;;19.93;72.77
28354;BME280;15603;50.878;8.036;2022-08-21T08:22:58;147925.59;;;19.67;71.82
28354;BME280;15603;50.878;8.036;2022-08-21T08:25:26;148035.72;;;20.13;71.67
28354;BME280;15603;50.878;8.036;2022-08-21T08:28:04;148062.63;;;20.25;70.35
28354;BME280;15603;50.878;8.036;2022-08-21T08:30:46;148101.75;;;20.41;68.67
28354;BME280;15603;50.878;8.036;2022-08-21T08:33:14;148099.31;;;20.40;67.81
28354;BME280;15603;50.878;8.036;2022-08-21T08:35:45;148207.00;;;20.85;66.92
28354;BME280;15603;50.878;8.036;2022-08-21T08:38:13;148246.19;;;21.02;64.48
28354;BME280;15603;50.878;8.036;2022-08-21T08:41:24;148280.41;;;21.16;62.89
28354;BME280;15603;50.878;8.036;2022-08-21T08:44:00;148290.19;;;21.20;62.68
28354;BME280;15603;50.878;8.036;2022-08-21T08:46:36;148324.50;;;21.34;62.19
28354;BME280;15603;50.878;8.036;2022-08-21T08:49:09;148374.69;;;21.55;61.86
28354;BME280;15603;50.878;8.036;2022-08-21T08:51:46;148344.06;;;21.43;62.17
28354;BME280;15603;50.878;8.036;2022-08-21T08:54:43;148304.88;;;21.26;60.53
28354;BME280;15603;50.878;8.036;2022-08-21T08:57:18;148459.16;;;21.91;60.51
28354;BME280;15603;50.878;8.036;2022-08-21T08:59:49;148520.38;;;22.16;60.30
28354;BME280;15603;50.878;8.036;2022-08-21T09:02:19;148481.22;;;22.00;60.28
28354;BME280;15603;50.878;8.036;2022-08-21T09:04:48;148532.63;;;22.22;59.06
28354;BME280;15603;50.878;8.036;2022-08-21T09:07:45;148478.75;;;21.99;60.70
28354;BME280;15603;50.878;8.036;2022-08-21T09:10:24;148586.56;;;22.44;58.86
28354;BME280;15603;50.878;8.036;2022-08-21T09:15:59;148575.53;;;22.40;57.92
28354;BME280;15603;50.878;8.036;2022-08-21T09:27:13;148535.06;;;22.23;54.52
28354;BME280;15603;50.878;8.036;2022-08-21T09:29:44;148513.06;;;22.13;54.86
28354;BME280;15603;50.878;8.036;2022-08-21T09:35:18;148544.94;;;22.27;54.93
28354;BME280;15603;50.878;8.036;2022-08-21T09:38:02;148574.31;;;22.39;54.63
28354;BME280;15603;50.878;8.036;2022-08-21T09:40:42;148661.28;;;22.76;54.73
28354;BME280;15603;50.878;8.036;2022-08-21T09:45:39;148733.59;;;23.06;51.26
28354;BME280;15603;50.878;8.036;2022-08-21T09:50:39;148726.25;;;23.03;51.33
28354;BME280;15603;50.878;8.036;2022-08-21T09:53:16;148750.72;;;23.13;51.23
28354;BME280;15603;50.878;8.036;2022-08-21T09:58:35;148689.44;;;22.87;51.00
28354;BME280;15603;50.878;8.036;2022-08-21T10:01:05;148731.13;;;23.05;51.65
28354;BME280;15603;50.878;8.036;2022-08-21T10:03:33;148667.38;;;22.78;50.84
28354;BME280;15603;50.878;8.036;2022-08-21T10:06:06;148694.34;;;22.89;51.69
28354;BME280;15603;50.878;8.036;2022-08-21T10:08:38;148728.72;;;23.04;49.54
28354;BME280;15603;50.878;8.036;2022-08-21T10:11:10;148737.25;;;23.07;50.04
28354;BME280;15603;50.878;8.036;2022-08-21T10:13:58;148684.53;;;22.85;52.51
28354;BME280;15603;50.878;8.036;2022-08-21T10:22:27;148885.53;;;23.69;49.68
28354;BME280;15603;50.878;8.036;2022-08-21T10:33:45;148937.06;;;23.91;50.06
28354;BME280;15603;50.878;8.036;2022-08-21T10:36:28;148876.97;;;23.66;49.21
28354;BME280;15603;50.878;8.036;2022-08-21T10:39:16;148823.03;;;23.43;49.38
28354;BME280;15603;50.878;8.036;2022-08-21T10:47:07;148793.63;;;23.31;49.92
28354;BME280;15603;50.878;8.036;2022-08-21T10:49:46;148826.72;;;23.45;48.99
28354;BME280;15603;50.878;8.036;2022-08-21T10:55:25;148883.06;;;23.68;48.64
28354;BME280;15603;50.878;8.036;2022-08-21T11:00:35;148951.75;;;23.97;48.25
28354;BME280;15603;50.878;8.036;2022-08-21T11:03:25;148973.81;;;24.06;48.42
28354;BME280;15603;50.878;8.036;2022-08-21T11:06:16;148983.63;;;24.10;48.20
28354;BME280;15603;50.878;8.036;2022-08-21T11:08:55;149010.59;;;24.22;47.02
28354;BME280;15603;50.878;8.036;2022-08-21T11:11:31;149005.69;;;24.20;46.74
28354;BME280;15603;50.878;8.036;2022-08-21T11:14:25;149052.28;;;24.39;45.91
28354;BME280;15603;50.878;8.036;2022-08-21T11:17:08;149097.69;;;24.58;46.47
28354;BME280;15603;50.878;8.036;2022-08-21T11:20:21;149138.16;;;24.75;45.59
28354;BME280;15603;50.878;8.036;2022-08-21T11:22:56;149116.09;;;24.66;46.29
28354;BME280;15603;50.878;8.036;2022-08-21T11:25:36;149044.91;;;24.36;46.28
28354;BME280;15603;50.878;8.036;2022-08-21T11:28:26;149100.13;;;24.59;46.00
28354;BME280;15603;50.878;8.036;2022-08-21T11:41:42;149246.06;;;25.20;44.03
28354;BME280;15603;50.878;8.036;2022-08-21T11:44:30;149209.28;;;25.05;44.63
28354;BME280;15603;50.878;8.036;2022-08-21T11:47:25;149260.81;;;25.26;44.38
28354;BME280;15603;50.878;8.036;2022-08-21T11:50:02;149268.19;;;25.30;43.29
28354;BME280;15603;50.878;8.036;2022-08-21T11:53:01;149253.50;;;25.23;44.45
28354;BME280;15603;50.878;8.036;2022-08-21T11:55:44;149199.47;;;25.01;44.48
28354;BME280;15603;50.878;8.036;2022-08-21T12:00:44;149184.75;;;24.95;43.07
28354;BME280;15603;50.878;8.036;2022-08-21T12:03:21;149223.97;;;25.11;43.38
28354;BME280;15603;50.878;8.036;2022-08-21T12:06:02;149238.69;;;25.17;41.61
28354;BME280;15603;50.878;8.036;2022-08-21T12:08:34;149197.00;;;25.00;42.08
28354;BME280;15603;50.878;8.036;2022-08-21T12:11:06;149140.59;;;24.76;42.62
28354;BME280;15603;50.878;8.036;2022-08-21T12:13:56;149199.47;;;25.01;40.96
28354;BME280;15603;50.878;8.036;2022-08-21T12:16:36;149322.19;;;25.52;40.71
28354;BME280;15603;50.878;8.036;2022-08-21T12:24:19;149312.34;;;25.48;39.37
28354;BME280;15603;50.878;8.036;2022-08-21T12:26:58;149319.72;;;25.51;40.54
28354;BME280;15603;50.878;8.036;2022-08-21T12:29:47;149302.53;;;25.44;40.62
28354;BME280;15603;50.878;8.036;2022-08-21T12:34:46;149192.09;;;24.98;40.58
28354;BME280;15603;50.878;8.036;2022-08-21T12:37:24;149201.91;;;25.02;40.86
28354;BME280;15603;50.878;8.036;2022-08-21T12:39:54;149183.50;;;24.94;38.21
28354;BME280;15603;50.878;8.036;2022-08-21T12:42:34;149194.56;;;24.99;38.18
28354;BME280;15603;50.878;8.036;2022-08-21T12:45:46;149209.28;;;25.05;39.44
28354;BME280;15603;50.878;8.036;2022-08-21T12:48:11;149332.00;;;25.56;40.44
28354;BME280;15603;50.878;8.036;2022-08-21T12:50:49;149435.09;;;25.99;39.74
28354;BME280;15603;50.878;8.036;2022-08-21T12:53:25;149401.91;;;25.85;38.43
28354;BME280;15603;50.878;8.036;2022-08-21T12:55:53;149367.53;;;25.71;40.17
28354;BME280;15603;50.878;8.036;2022-08-21T12:58:27;149300.09;;;25.43;39.19
28354;BME280;15603;50.878;8.036;2022-08-21T13:01:06;149367.53;;;25.71;41.20
28354;BME280;15603;50.878;8.036;2022-08-21T13:03:35;149383.50;;;25.78;39.37
28354;BME280;15603;50.878;8.036;2022-08-21T13:06:04;149442.47;;;26.02;40.43
28354;BME280;15603;50.878;8.036;2022-08-21T13:08:35;149481.72;;;26.19;38.14
28354;BME280;15603;50.878;8.036;2022-08-21T13:11:06;149555.34;;;26.50;39.52
28354;BME280;15603;50.878;8.036;2022-08-21T13:13:42;149570.06;;;26.56;38.70
28354;BME280;15603;50.878;8.036;2022-08-21T13:16:25;149562.72;;;26.53;38.42
28354;BME280;15603;50.878;8.036;2022-08-21T13:21:30;149621.72;;;26.77;39.44
28354;BME280;15603;50.878;8.036;2022-08-21T13:24:23;149602.03;;;26.69;37.58
28354;BME280;15603;50.878;8.036;2022-08-21T13:27:24;149523.44;;;26.36;38.00
28354;BME280;15603;50.878;8.036;2022-08-21T13:30:22;149555.34;;;26.50;37.36
28354;BME280;15603;50.878;8.036;2022-08-21T13:32:52;149444.91;;;26.03;38.01
28354;BME280;15603;50.878;8.036;2022-08-21T13:35:30;149338.13;;;25.59;38.92
28354;BME280;15603;50.878;8.036;2022-08-21T13:37:58;149367.53;;;25.71;38.99
28354;BME280;15603;50.878;8.036;2022-08-21T13:40:32;149383.50;;;25.78;39.06
28354;BME280;15603;50.878;8.036;2022-08-21T13:43:12;149281.69;;;25.35;39.97
28354;BME280;15603;50.878;8.036;2022-08-21T13:45:51;149327.09;;;25.54;39.20
28354;BME280;15603;50.878;8.036;2022-08-21T13:48:19;149280.47;;;25.35;39.64
28354;BME280;15603;50.878;8.036;2022-08-21T13:50:47;149322.19;;;25.52;39.12
28354;BME280;15603;50.878;8.036;2022-08-21T13:53:22;149378.63;;;25.76;38.35
28354;BME280;15603;50.878;8.036;2022-08-21T13:55:50;149444.91;;;26.03;38.00
28354;BME280;15603;50.878;8.036;2022-08-21T13:58:42;149485.41;;;26.20;38.03
28354;BME280;15603;50.878;8.036;2022-08-21T14:01:37;149552.91;;;26.49;37.52
28354;BME280;15603;50.878;8.036;2022-08-21T14:04:22;149579.97;;;26.60;37.23
28354;BME280;15603;50.878;8.036;2022-08-21T14:06:50;149479.28;;;26.18;37.03
28354;BME280;15603;50.878;8.036;2022-08-21T14:09:34;149425.28;;;25.95;37.16
28354;BME280;15603;50.878;8.036;2022-08-21T14:15:30;149467.00;;;26.13;37.20
28354;BME280;15603;50.878;8.036;2022-08-21T14:18:17;149524.69;;;26.37;36.58
28354;BME280;15603;50.878;8.036;2022-08-21T14:20:45;149517.31;;;26.34;36.62
28354;BME280;15603;50.878;8.036;2022-08-21T14:23:24;149506.28;;;26.29;36.70
28354;BME280;15603;50.878;8.036;2022-08-21T14:25:52;149481.72;;;26.19;36.28
28354;BME280;15603;50.878;8.036;2022-08-21T14:30:56;149563.94;;;26.53;35.52